Time;durP1;ratioP1;P1;durP2;ratioP2;P2;SDS_P1;SDS_P2;PMS_P1;PMS_P2;Temp;Humidity;BMP_temperature;BMP_pressure;BME280_temperature;BME280_humidity;BME280_pressure;Samples;Min_cycle;Max_cycle;Signal;HPM_P1;HPM_P2
2021/09/06 00:02:21;;;;;;;4.00;2.40;;;11.10;75.50;;;;;;5046969;28;20470;-71
2021/09/06 00:04:47;;;;;;;3.22;2.30;;;11.20;75.50;;;;;;5046479;28;20049;-73
2021/09/06 00:07:12;;;;;;;4.60;2.35;;;11.20;75.30;;;;;;5043956;28;20467;-71
2021/09/06 00:09:39;;;;;;;3.50;2.20;;;11.20;75.40;;;;;;5033188;28;20032;-71
2021/09/06 00:12:05;;;;;;;4.65;2.30;;;11.20;75.30;;;;;;5033271;28;20033;-71
2021/09/06 00:14:31;;;;;;;4.40;2.60;;;11.20;75.30;;;;;;5046955;28;20025;-70
2021/09/06 00:16:57;;;;;;;4.57;2.63;;;11.20;75.40;;;;;;5054583;28;20149;-73
2021/09/06 00:19:24;;;;;;;5.07;2.67;;;11.20;75.50;;;;;;5047210;28;20025;-72
2021/09/06 00:21:50;;;;;;;4.55;2.53;;;11.20;75.60;;;;;;5049537;28;20029;-72
2021/09/06 00:24:16;;;;;;;5.25;2.65;;;11.20;76.20;;;;;;5051311;28;20028;-72
2021/09/06 00:26:41;;;;;;;4.55;2.65;;;11.20;75.70;;;;;;5049177;28;20033;-73
2021/09/06 00:29:07;;;;;;;4.63;2.38;;;11.20;75.80;;;;;;5044333;28;20534;-72
2021/09/06 00:31:33;;;;;;;5.72;2.80;;;11.10;76.10;;;;;;5053357;28;20049;-72
2021/09/06 00:33:59;;;;;;;6.57;3.00;;;11.10;76.10;;;;;;5044802;28;20090;-73
2021/09/06 00:36:24;;;;;;;6.80;2.63;;;11.10;76.00;;;;;;5044647;28;20065;-72
2021/09/06 00:38:50;;;;;;;5.25;2.72;;;11.10;76.00;;;;;;5032948;28;20037;-72
2021/09/06 00:41:16;;;;;;;4.72;2.80;;;11.10;75.90;;;;;;5034663;28;20030;-72
2021/09/06 00:43:43;;;;;;;4.53;2.40;;;11.10;75.80;;;;;;5052127;28;20036;-72
2021/09/06 00:46:09;;;;;;;5.22;2.60;;;11.10;76.00;;;;;;5053791;28;20021;-73
2021/09/06 00:48:35;;;;;;;4.85;2.70;;;11.10;76.20;;;;;;5050238;28;20029;-72
2021/09/06 00:51:01;;;;;;;5.22;2.63;;;11.00;76.20;;;;;;5053212;28;20036;-72
2021/09/06 00:53:27;;;;;;;4.80;2.60;;;11.00;76.30;;;;;;5051748;28;20033;-73
2021/09/06 00:55:53;;;;;;;5.03;2.53;;;11.00;76.40;;;;;;5052468;28;20379;-73
2021/09/06 00:58:20;;;;;;;5.78;2.58;;;11.00;76.50;;;;;;5052180;28;20033;-73
2021/09/06 01:00:46;;;;;;;5.60;3.15;;;11.00;76.60;;;;;;5052073;28;20025;-72
2021/09/06 01:03:12;;;;;;;5.13;2.80;;;11.00;76.60;;;;;;5034498;28;20075;-74
2021/09/06 01:05:38;;;;;;;5.97;3.05;;;11.00;76.80;;;;;;5034052;28;20103;-73
2021/09/06 01:08:03;;;;;;;5.75;3.70;;;10.90;77.00;;;;;;5042972;28;20029;-73
2021/09/06 01:10:29;;;;;;;5.07;3.00;;;10.90;77.30;;;;;;5037629;28;20467;-74
2021/09/06 01:12:55;;;;;;;4.32;2.67;;;10.90;77.40;;;;;;5036172;28;20121;-73
2021/09/06 01:15:20;;;;;;;4.50;2.55;;;10.80;77.60;;;;;;5035379;28;20037;-73
2021/09/06 01:17:46;;;;;;;4.80;2.95;;;10.80;77.70;;;;;;5032703;28;20065;-73
2021/09/06 01:20:12;;;;;;;5.25;3.05;;;10.90;77.80;;;;;;5032318;28;20029;-73
2021/09/06 01:22:39;;;;;;;5.68;3.20;;;10.80;78.00;;;;;;5033154;28;20072;-73
2021/09/06 01:25:05;;;;;;;4.72;2.90;;;10.80;78.30;;;;;;5033484;28;20025;-73
2021/09/06 01:27:31;;;;;;;10.75;3.30;;;10.80;78.50;;;;;;5032039;28;20036;-73
2021/09/06 01:29:57;;;;;;;6.30;3.75;;;10.80;78.60;;;;;;5034268;28;20034;-73
2021/09/06 01:32:22;;;;;;;6.10;3.58;;;10.80;78.70;;;;;;5045545;28;20029;-73
2021/09/06 01:34:48;;;;;;;6.47;3.60;;;10.80;78.70;;;;;;5045055;28;20053;-74
2021/09/06 01:37:14;;;;;;;6.15;3.40;;;10.70;79.00;;;;;;5035228;28;20026;-74
2021/09/06 01:39:40;;;;;;;6.57;3.55;;;10.70;78.90;;;;;;5032192;28;20021;-73
2021/09/06 01:42:06;;;;;;;5.43;3.15;;;10.70;78.90;;;;;;5032206;28;20041;-73
2021/09/06 01:44:32;;;;;;;7.10;3.17;;;10.70;78.90;;;;;;5042309;28;20091;-73
2021/09/06 01:46:58;;;;;;;7.05;3.35;;;10.70;79.10;;;;;;5055801;28;20471;-72
2021/09/06 01:49:23;;;;;;;4.53;2.95;;;10.60;79.30;;;;;;5042456;28;20041;-72
2021/09/06 01:51:49;;;;;;;5.97;3.40;;;10.60;79.40;;;;;;5044284;28;20025;-73
2021/09/06 01:54:15;;;;;;;5.28;3.15;;;10.60;79.50;;;;;;5052969;28;20025;-72
2021/09/06 01:56:41;;;;;;;7.38;3.97;;;10.50;79.20;;;;;;5048131;28;20379;-73
2021/09/06 01:59:06;;;;;;;6.28;3.38;;;10.40;79.20;;;;;;5055089;28;20040;-73
2021/09/06 02:01:32;;;;;;;6.35;3.20;;;10.30;79.20;;;;;;5048585;28;20468;-74
2021/09/06 02:03:58;;;;;;;8.73;4.10;;;10.10;79.20;;;;;;5042252;28;20096;-74
2021/09/06 02:06:23;;;;;;;7.13;3.60;;;9.90;79.60;;;;;;5050064;28;20037;-73
2021/09/06 02:08:49;;;;;;;7.70;3.50;;;9.80;79.90;;;;;;5036949;28;20025;-74
2021/09/06 02:11:15;;;;;;;7.88;3.88;;;9.70;80.20;;;;;;5035628;28;20036;-72
2021/09/06 02:13:41;;;;;;;7.47;4.10;;;9.70;80.20;;;;;;5036554;28;20022;-72
2021/09/06 02:16:06;;;;;;;5.55;3.90;;;9.60;80.50;;;;;;5049521;28;20045;-73
2021/09/06 02:18:32;;;;;;;7.03;3.80;;;9.60;80.70;;;;;;5041712;28;20533;-71
2021/09/06 02:20:58;;;;;;;7.88;3.75;;;9.60;80.90;;;;;;5049027;28;20029;-71
2021/09/06 02:23:24;;;;;;;9.18;5.07;;;9.50;81.00;;;;;;5051824;28;20055;-73
2021/09/06 02:25:50;;;;;;;6.63;4.13;;;9.50;81.40;;;;;;5035541;28;20040;-75
2021/09/06 02:28:15;;;;;;;5.78;4.13;;;9.50;81.70;;;;;;5037804;28;20025;-71
2021/09/06 02:30:41;;;;;;;6.45;3.95;;;9.50;82.00;;;;;;5037017;28;20068;-73
2021/09/06 02:33:07;;;;;;;7.10;3.85;;;9.50;82.10;;;;;;5048872;28;20845;-72
2021/09/06 02:35:32;;;;;;;7.93;4.75;;;9.50;82.40;;;;;;5042707;28;20079;-72
2021/09/06 02:37:58;;;;;;;6.25;4.03;;;9.50;82.50;;;;;;5047045;28;20029;-73
2021/09/06 02:40:24;;;;;;;7.30;4.57;;;9.50;82.70;;;;;;5036068;28;20029;-73
2021/09/06 02:42:50;;;;;;;7.57;4.80;;;9.60;82.60;;;;;;5036352;28;20057;-72
2021/09/06 02:45:16;;;;;;;8.25;5.15;;;9.40;82.50;;;;;;5034802;28;20033;-74
2021/09/06 02:47:46;;;;;;;8.40;5.90;;;9.40;82.90;;;;;;5036541;28;20100;-72
2021/09/06 02:50:12;;;;;;;8.98;5.40;;;9.30;83.10;;;;;;5036091;28;20438;-72
2021/09/06 02:52:38;;;;;;;8.13;5.35;;;9.30;83.30;;;;;;5035520;28;20029;-72
2021/09/06 02:55:05;;;;;;;9.85;5.45;;;9.30;83.60;;;;;;5045967;28;20037;-73
2021/09/06 02:57:31;;;;;;;10.93;6.50;;;9.30;83.70;;;;;;5053997;28;20036;-73
2021/09/06 02:59:56;;;;;;;8.65;5.90;;;9.30;83.70;;;;;;5042085;28;20037;-72
2021/09/06 03:02:22;;;;;;;9.77;6.82;;;9.20;84.00;;;;;;5043058;28;20397;-72
2021/09/06 03:04:48;;;;;;;11.52;8.57;;;9.20;84.00;;;;;;5039158;28;20072;-73
2021/09/06 03:07:13;;;;;;;8.50;5.95;;;9.20;84.60;;;;;;5047572;28;20044;-73
2021/09/06 03:09:39;;;;;;;9.85;6.38;;;9.20;85.20;;;;;;5034606;28;20026;-72
2021/09/06 03:12:05;;;;;;;9.50;6.65;;;9.10;84.40;;;;;;5035636;28;20053;-72
2021/09/06 03:14:31;;;;;;;8.85;6.75;;;9.00;85.00;;;;;;5035367;28;20084;-72
2021/09/06 03:16:57;;;;;;;13.30;8.55;;;8.90;85.10;;;;;;5035241;28;20063;-72
2021/09/06 03:19:23;;;;;;;10.85;7.15;;;8.90;85.40;;;;;;5044127;28;20037;-72
2021/09/06 03:21:49;;;;;;;10.63;6.43;;;8.90;85.50;;;;;;5054196;28;20051;-72
2021/09/06 03:24:14;;;;;;;9.93;6.25;;;8.90;85.30;;;;;;5053796;28;20021;-72
2021/09/06 03:26:40;;;;;;;11.55;6.28;;;9.00;85.50;;;;;;5053061;28;20028;-71
2021/09/06 03:29:06;;;;;;;9.88;6.15;;;9.00;85.20;;;;;;5064686;28;20072;-73
2021/09/06 03:31:32;;;;;;;11.43;5.90;;;9.00;85.00;;;;;;5035445;28;20030;-72
2021/09/06 03:34:01;;;;;;;11.10;5.97;;;9.10;85.20;;;;;;5034773;28;20530;-73
2021/09/06 03:36:27;;;;;;;8.43;5.80;;;9.30;85.30;;;;;;5039079;28;20041;-72
2021/09/06 03:38:55;;;;;;;9.35;6.47;;;9.50;85.50;;;;;;5047305;28;20021;-72
2021/09/06 03:41:21;;;;;;;18.17;7.53;;;9.70;85.20;;;;;;5038651;28;20029;-72
2021/09/06 03:43:47;;;;;;;17.38;7.13;;;9.90;83.80;;;;;;5033836;28;20074;-72
2021/09/06 03:46:13;;;;;;;12.02;6.22;;;10.10;83.10;;;;;;5040390;28;20056;-73
2021/09/06 03:48:38;;;;;;;12.90;6.15;;;10.40;82.30;;;;;;5044238;28;20179;-74
2021/09/06 03:51:04;;;;;;;19.55;8.23;;;10.70;81.40;;;;;;5037592;28;20032;-73
2021/09/06 03:53:30;;;;;;;18.40;10.40;;;11.00;80.20;;;;;;5047598;28;20031;-74
2021/09/06 03:55:55;;;;;;;15.32;8.65;;;11.30;79.10;;;;;;5038031;28;20086;-73
2021/09/06 03:58:21;;;;;;;16.52;8.50;;;11.60;78.00;;;;;;5053302;28;20025;-73
2021/09/06 04:00:47;;;;;;;19.85;8.98;;;11.90;76.70;;;;;;5051608;28;20025;-73
2021/09/06 04:03:13;;;;;;;24.13;8.85;;;12.20;75.40;;;;;;5048994;28;20452;-74
2021/09/06 04:05:39;;;;;;;18.30;9.55;;;12.60;74.00;;;;;;5035546;28;20045;-73
2021/09/06 04:08:05;;;;;;;20.02;9.70;;;12.90;72.60;;;;;;5042548;28;20542;-74
2021/09/06 04:10:31;;;;;;;15.50;8.50;;;13.30;71.30;;;;;;5055090;28;20025;-73
2021/09/06 04:12:57;;;;;;;22.20;12.82;;;13.60;70.40;;;;;;5052662;28;20036;-73
2021/09/06 04:15:23;;;;;;;17.95;9.38;;;13.90;69.20;;;;;;5051269;28;20045;-73
2021/09/06 04:17:49;;;;;;;18.23;8.00;;;14.30;68.10;;;;;;5037082;28;20052;-81
2021/09/06 04:20:15;;;;;;;17.35;7.90;;;14.60;67.10;;;;;;5034668;28;20112;-77
2021/09/06 04:22:40;;;;;;;17.42;8.15;;;15.10;66.10;;;;;;5039515;28;20468;-78
2021/09/06 04:25:07;;;;;;;14.20;7.60;;;15.40;65.10;;;;;;5042746;28;20041;-78
2021/09/06 04:27:34;;;;;;;17.00;8.48;;;15.70;64.10;;;;;;5051263;28;20032;-77
2021/09/06 04:29:59;;;;;;;16.65;7.78;;;15.90;63.20;;;;;;5039347;28;20040;-78
2021/09/06 04:32:25;;;;;;;13.50;7.45;;;16.10;62.70;;;;;;5032995;28;20108;-77
2021/09/06 04:34:51;;;;;;;16.38;8.05;;;16.40;62.00;;;;;;5047103;28;20025;-77
2021/09/06 04:37:16;;;;;;;14.07;7.50;;;16.80;61.60;;;;;;5053787;28;20037;-77
2021/09/06 04:39:42;;;;;;;16.60;7.68;;;17.20;60.70;;;;;;5050847;28;20033;-78
2021/09/06 04:42:08;;;;;;;15.23;7.63;;;17.50;60.20;;;;;;5041759;28;20357;-80
2021/09/06 04:44:34;;;;;;;18.00;7.65;;;17.90;59.50;;;;;;5050821;28;20032;-79
2021/09/06 04:46:59;;;;;;;16.15;8.00;;;18.10;58.80;;;;;;5052324;28;20150;-77
2021/09/06 04:49:25;;;;;;;17.95;8.80;;;18.10;58.10;;;;;;5037892;28;20037;-77
2021/09/06 04:51:51;;;;;;;19.92;9.48;;;18.00;58.10;;;;;;5037213;28;20392;-72
2021/09/06 04:54:18;;;;;;;20.52;9.48;;;18.10;58.30;;;;;;5032063;28;20030;-69
2021/09/06 04:56:44;;;;;;;17.58;8.50;;;17.90;58.20;;;;;;5038850;28;20041;-71
2021/09/06 04:59:10;;;;;;;20.35;9.27;;;17.90;58.70;;;;;;5045033;28;20029;-71
2021/09/06 05:01:36;;;;;;;22.55;8.20;;;18.20;58.80;;;;;;5051901;28;20426;-73
2021/09/06 05:04:02;;;;;;;18.92;7.75;;;18.20;58.80;;;;;;5039049;28;20507;-73
2021/09/06 05:06:28;;;;;;;17.52;8.10;;;18.20;58.50;;;;;;5033964;28;20048;-74
2021/09/06 05:08:54;;;;;;;25.98;8.15;;;18.30;58.90;;;;;;5033250;28;20100;-72
2021/09/06 05:11:19;;;;;;;10.10;5.05;;;18.60;59.10;;;;;;5032864;28;20460;-73
2021/09/06 05:13:45;;;;;;;14.40;6.75;;;19.10;58.10;;;;;;5032680;28;20601;-72
2021/09/06 05:16:11;;;;;;;9.70;3.97;;;19.40;56.90;;;;;;5032758;28;20033;-71
2021/09/06 05:18:37;;;;;;;5.95;2.85;;;19.50;56.00;;;;;;5048388;28;20055;-72
2021/09/06 05:21:03;;;;;;;5.43;2.55;;;19.40;55.50;;;;;;5038468;28;20033;-71
2021/09/06 05:23:29;;;;;;;4.60;1.80;;;19.40;55.00;;;;;;5040056;28;20033;-73
2021/09/06 05:25:54;;;;;;;5.20;2.10;;;19.50;54.40;;;;;;5038778;28;20040;-71
2021/09/06 05:28:20;;;;;;;4.97;2.20;;;19.70;54.10;;;;;;5045368;28;20026;-73
2021/09/06 05:30:46;;;;;;;4.05;2.25;;;20.10;53.70;;;;;;5050612;28;20124;-71
2021/09/06 05:33:12;;;;;;;2.97;1.80;;;20.30;53.00;;;;;;5045077;28;20108;-72
2021/09/06 05:35:38;;;;;;;4.10;1.90;;;20.50;52.20;;;;;;5045655;28;20025;-73
2021/09/06 05:38:04;;;;;;;4.28;1.80;;;20.60;52.00;;;;;;5046899;28;20387;-71
2021/09/06 05:40:29;;;;;;;3.63;1.88;;;20.70;51.70;;;;;;5046437;28;20025;-71
2021/09/06 05:42:55;;;;;;;4.78;2.00;;;20.80;51.20;;;;;;5052658;28;20057;-72
2021/09/06 05:45:21;;;;;;;4.22;1.90;;;20.80;51.00;;;;;;5050155;28;20541;-68
2021/09/06 05:47:47;;;;;;;3.50;1.77;;;21.00;51.20;;;;;;5039662;28;20361;-72
2021/09/06 05:50:17;;;;;;;3.13;1.60;;;21.30;50.40;;;;;;5040203;28;20076;-70
2021/09/06 05:52:44;;;;;;;4.82;1.63;;;21.50;49.80;;;;;;5040922;28;20027;-75
2021/09/06 05:55:11;;;;;;;4.22;1.55;;;21.70;48.70;;;;;;5063539;28;20028;-72
2021/09/06 05:57:37;;;;;;;3.67;1.60;;;21.60;48.00;;;;;;5065854;28;20120;-70
2021/09/06 06:00:03;;;;;;;4.30;1.88;;;21.20;47.90;;;;;;5057610;28;20120;-70
2021/09/06 06:02:29;;;;;;;3.78;2.08;;;20.90;48.50;;;;;;5049021;28;20527;-73
2021/09/06 06:04:54;;;;;;;4.05;1.80;;;20.70;49.40;;;;;;5044441;28;20041;-71
2021/09/06 06:07:20;;;;;;;3.58;1.67;;;20.60;50.10;;;;;;5038124;28;20065;-72
2021/09/06 06:09:48;;;;;;;3.38;1.77;;;21.00;50.30;;;;;;5037942;28;20128;-80
2021/09/06 06:12:14;;;;;;;4.03;1.88;;;21.30;49.70;;;;;;5038173;28;20447;-71
2021/09/06 06:14:39;;;;;;;3.17;1.80;;;21.60;49.20;;;;;;5047191;28;20061;-71
2021/09/06 06:17:05;;;;;;;4.03;1.95;;;21.70;48.60;;;;;;5046463;28;20376;-71
2021/09/06 06:19:31;;;;;;;4.88;2.00;;;21.60;47.70;;;;;;5066810;28;20029;-70
2021/09/06 06:21:57;;;;;;;4.95;2.08;;;21.30;47.50;;;;;;5052344;28;20029;-72
2021/09/06 06:24:22;;;;;;;3.13;1.73;;;20.90;47.20;;;;;;5056295;28;20426;-71
2021/09/06 06:26:48;;;;;;;7.15;2.60;;;20.60;48.20;;;;;;5073241;28;20109;-72
2021/09/06 06:29:14;;;;;;;3.47;1.90;;;20.50;49.10;;;;;;5046676;28;20068;-72
2021/09/06 06:31:39;;;;;;;6.95;2.20;;;20.60;49.40;;;;;;5058493;28;20025;-72
2021/09/06 06:34:05;;;;;;;4.57;1.85;;;20.70;49.60;;;;;;5061759;28;20115;-72
2021/09/06 06:36:31;;;;;;;3.42;2.00;;;20.60;49.20;;;;;;5073600;28;20040;-72
2021/09/06 06:38:57;;;;;;;5.28;1.88;;;20.40;49.40;;;;;;5058113;28;20029;-70
2021/09/06 06:41:23;;;;;;;4.15;1.90;;;20.30;49.80;;;;;;5060864;28;20036;-70
2021/09/06 06:43:48;;;;;;;3.67;2.00;;;20.20;49.90;;;;;;5063279;28;20032;-72
2021/09/06 06:46:14;;;;;;;4.32;2.30;;;20.20;50.40;;;;;;5058700;28;20052;-72
2021/09/06 06:48:40;;;;;;;3.65;2.22;;;20.60;50.40;;;;;;5068424;28;20036;-74
2021/09/06 06:51:06;;;;;;;4.78;2.28;;;21.00;49.70;;;;;;5063506;28;20043;-71
2021/09/06 06:53:32;;;;;;;3.72;2.50;;;21.40;49.30;;;;;;5054333;28;20025;-69
2021/09/06 06:55:57;;;;;;;6.05;1.90;;;22.10;48.70;;;;;;5048115;28;20083;-70
2021/09/06 06:58:24;;;;;;;3.45;1.90;;;22.80;47.80;;;;;;5054600;28;20470;-69
2021/09/06 07:00:50;;;;;;;4.10;1.90;;;23.50;46.60;;;;;;5074775;28;20482;-71
2021/09/06 07:03:16;;;;;;;4.05;1.73;;;24.10;46.00;;;;;;5066068;28;20436;-72
2021/09/06 07:05:42;;;;;;;3.10;1.42;;;24.10;44.30;;;;;;5054088;28;20057;-69
2021/09/06 07:08:07;;;;;;;2.60;1.50;;;23.90;43.40;;;;;;5069178;28;20390;-72
2021/09/06 07:10:33;;;;;;;3.42;1.52;;;23.70;43.80;;;;;;5074160;28;20040;-71
2021/09/06 07:12:59;;;;;;;2.75;1.42;;;23.70;44.20;;;;;;5075278;28;20028;-72
2021/09/06 07:15:31;;;;;;;5.93;1.77;;;23.70;43.60;;;;;;5054348;28;20029;-71
2021/09/06 07:17:57;;;;;;;4.95;1.67;;;23.70;43.60;;;;;;5070798;28;20025;-72
2021/09/06 07:20:22;;;;;;;3.30;1.77;;;23.80;43.70;;;;;;5075343;28;20523;-71
2021/09/06 07:22:48;;;;;;;3.10;1.50;;;24.20;43.80;;;;;;5067831;28;20024;-72
2021/09/06 07:25:14;;;;;;;2.17;1.30;;;24.50;42.70;;;;;;5066461;28;20035;-72
2021/09/06 07:27:40;;;;;;;2.40;1.45;;;24.80;41.70;;;;;;5055110;28;20060;-70
2021/09/06 07:30:06;;;;;;;5.97;1.95;;;25.10;41.30;;;;;;5054878;28;20029;-70
2021/09/06 07:32:32;;;;;;;3.25;1.45;;;25.30;40.30;;;;;;5051067;28;20368;-72
2021/09/06 07:34:58;;;;;;;2.35;1.42;;;25.50;40.40;;;;;;5042411;28;20079;-71
2021/09/06 07:37:23;;;;;;;5.00;1.30;;;25.80;40.10;;;;;;5047136;28;20451;-70
2021/09/06 07:39:49;;;;;;;3.97;1.30;;;26.20;39.10;;;;;;5074879;28;20050;-72
2021/09/06 07:42:15;;;;;;;1.80;1.30;;;26.10;38.10;;;;;;5074867;28;20028;-71
2021/09/06 07:44:40;;;;;;;1.73;1.17;;;26.20;37.70;;;;;;5064567;28;20029;-70
2021/09/06 07:47:06;;;;;;;3.60;1.40;;;26.10;37.50;;;;;;5073944;28;20036;-71
2021/09/06 07:49:32;;;;;;;2.42;1.13;;;25.90;37.40;;;;;;5041645;28;20136;-72
2021/09/06 07:51:58;;;;;;;3.55;1.27;;;25.60;37.50;;;;;;5045995;28;20036;-71
2021/09/06 07:54:25;;;;;;;2.88;1.33;;;25.60;37.40;;;;;;5056519;28;20051;-70
2021/09/06 07:56:53;;;;;;;3.58;1.58;;;25.70;37.00;;;;;;5074246;28;20032;-70
2021/09/06 07:59:20;;;;;;;4.70;1.60;;;25.60;37.20;;;;;;5067475;28;20033;-71
2021/09/06 08:01:46;;;;;;;3.00;1.60;;;25.50;37.70;;;;;;5053058;28;20029;-72
2021/09/06 08:04:12;;;;;;;3.75;1.52;;;25.50;37.70;;;;;;5067553;28;20056;-72
2021/09/06 08:06:38;;;;;;;2.90;1.38;;;25.70;38.20;;;;;;5054129;28;20043;-72
2021/09/06 08:09:04;;;;;;;3.20;1.38;;;25.50;38.00;;;;;;5071668;28;20030;-73
2021/09/06 08:11:30;;;;;;;2.15;1.20;;;25.40;37.70;;;;;;5046488;28;20024;-70
2021/09/06 08:13:57;;;;;;;2.42;1.27;;;25.10;38.00;;;;;;5063618;28;20032;-71
2021/09/06 08:16:23;;;;;;;4.72;1.67;;;24.80;38.10;;;;;;5062454;28;20116;-70
2021/09/06 08:18:48;;;;;;;3.53;1.30;;;24.30;38.30;;;;;;5052604;28;20068;-71
2021/09/06 08:21:15;;;;;;;4.38;1.80;;;23.70;38.60;;;;;;5060031;28;20093;-69
2021/09/06 08:23:41;;;;;;;4.75;1.20;;;23.30;40.10;;;;;;5046378;28;20426;-71
2021/09/06 08:26:07;;;;;;;3.03;1.33;;;23.00;40.00;;;;;;5055692;28;20086;-70
2021/09/06 08:28:32;;;;;;;2.17;1.42;;;22.70;40.40;;;;;;5052849;28;20057;-71
2021/09/06 08:30:59;;;;;;;4.10;1.25;;;22.40;40.70;;;;;;5037645;28;20088;-72
2021/09/06 08:33:25;;;;;;;2.30;1.38;;;22.00;41.00;;;;;;5050716;28;20111;-70
2021/09/06 08:35:50;;;;;;;2.50;1.52;;;21.70;41.00;;;;;;5035319;28;20124;-70
2021/09/06 08:38:18;;;;;;;3.20;1.50;;;21.40;41.50;;;;;;5040958;28;20056;-73
2021/09/06 08:40:44;;;;;;;3.60;1.60;;;21.10;42.10;;;;;;5043256;28;20025;-71
2021/09/06 08:43:10;;;;;;;2.72;1.23;;;20.70;42.10;;;;;;5043162;28;20517;-73
2021/09/06 08:45:37;;;;;;;3.85;1.70;;;20.50;42.90;;;;;;5049862;28;20033;-73
2021/09/06 08:48:03;;;;;;;3.33;1.38;;;20.90;43.10;;;;;;5047949;28;20063;-72
2021/09/06 08:50:29;;;;;;;2.33;1.55;;;21.60;43.20;;;;;;5054231;28;20028;-72
2021/09/06 08:52:55;;;;;;;2.80;1.52;;;22.40;42.20;;;;;;5033737;28;20360;-72
2021/09/06 08:55:21;;;;;;;3.03;1.58;;;23.20;41.80;;;;;;5039107;28;20037;-71
2021/09/06 08:57:47;;;;;;;2.63;1.30;;;24.20;41.00;;;;;;5041885;28;20057;-73
2021/09/06 09:00:14;;;;;;;2.20;1.23;;;24.80;39.40;;;;;;5062636;28;20088;-73
2021/09/06 09:02:42;;;;;;;2.88;1.50;;;25.30;38.40;;;;;;5065154;28;20025;-73
2021/09/06 09:05:10;;;;;;;2.15;1.05;;;25.50;37.50;;;;;;5040762;28;20048;-73
2021/09/06 09:07:39;;;;;;;5.50;1.42;;;25.50;36.50;;;;;;5036263;28;20493;-72
2021/09/06 09:10:09;;;;;;;3.75;1.38;;;25.60;37.40;;;;;;5033405;28;20022;-72
2021/09/06 09:12:37;;;;;;;2.30;1.20;;;25.70;36.50;;;;;;5046723;28;20438;-72
2021/09/06 09:15:03;;;;;;;3.55;1.55;;;25.80;36.40;;;;;;5044468;28;20025;-73
2021/09/06 09:17:29;;;;;;;2.75;1.35;;;26.00;36.50;;;;;;5040442;28;20049;-73
2021/09/06 09:20:01;;;;;;;3.22;1.50;;;26.30;36.00;;;;;;5042492;28;20487;-73
2021/09/06 09:22:36;;;;;;;2.38;1.30;;;26.90;35.30;;;;;;5049658;28;20095;-71
2021/09/06 09:25:11;;;;;;;2.45;1.40;;;27.60;34.70;;;;;;5037130;28;20083;-73
2021/09/06 09:27:42;;;;;;;2.85;1.20;;;27.40;34.30;;;;;;5042909;28;20037;-73
2021/09/06 09:30:29;;;;;;;3.47;1.52;;;26.90;34.60;;;;;;5042099;28;20403;-74
2021/09/06 09:33:06;;;;;;;3.42;1.55;;;26.20;34.70;;;;;;5041173;28;20028;-72
2021/09/06 09:35:32;;;;;;;3.05;1.27;;;25.30;35.30;;;;;;5040584;28;20033;-74
2021/09/06 09:38:03;;;;;;;3.25;1.20;;;24.60;35.30;;;;;;5043234;28;20107;-75
2021/09/06 09:40:34;;;;;;;1.90;1.30;;;24.00;36.10;;;;;;5043480;28;20502;-73
2021/09/06 09:43:00;;;;;;;2.45;1.40;;;23.40;37.10;;;;;;5033849;28;20064;-72
2021/09/06 09:45:26;;;;;;;3.97;1.40;;;22.90;37.70;;;;;;5034511;28;20060;-74
2021/09/06 09:47:53;;;;;;;3.00;1.20;;;22.50;38.00;;;;;;5038041;28;20108;-74
2021/09/06 09:50:19;;;;;;;3.38;1.50;;;22.30;38.70;;;;;;5039504;28;20036;-73
2021/09/06 09:52:46;;;;;;;3.47;1.42;;;22.20;38.90;;;;;;5040653;28;20203;-73
2021/09/06 09:55:13;;;;;;;2.92;1.10;;;22.00;39.10;;;;;;5036760;28;20025;-73
2021/09/06 09:57:39;;;;;;;2.60;1.08;;;22.00;38.90;;;;;;5033209;28;20029;-72
2021/09/06 10:00:06;;;;;;;5.53;1.30;;;22.00;38.80;;;;;;5039867;28;20055;-71
2021/09/06 10:02:33;;;;;;;2.58;1.20;;;21.80;39.20;;;;;;5044668;28;20104;-74
2021/09/06 10:05:04;;;;;;;1.92;1.10;;;21.60;39.60;;;;;;5037108;28;20052;-71
2021/09/06 10:07:35;;;;;;;3.63;1.23;;;21.40;40.00;;;;;;5049628;28;20119;-72
2021/09/06 10:10:17;;;;;;;1.70;1.00;;;21.70;40.10;;;;;;5058097;28;20435;-73
2021/09/06 10:12:43;;;;;;;6.55;1.40;;;22.00;39.30;;;;;;5063677;28;20017;-73
2021/09/06 10:15:09;;;;;;;2.97;1.30;;;22.60;39.60;;;;;;5065200;28;20021;-73
2021/09/06 10:17:39;;;;;;;4.00;1.10;;;23.00;38.50;;;;;;5055198;28;20068;-73
2021/09/06 10:20:13;;;;;;;3.17;1.20;;;23.20;38.20;;;;;;5071101;28;20078;-72
2021/09/06 10:22:44;;;;;;;3.50;1.40;;;23.10;37.00;;;;;;5058055;28;20448;-72
2021/09/06 10:25:15;;;;;;;1.85;1.20;;;23.00;37.50;;;;;;5061532;28;20391;-71
2021/09/06 10:27:52;;;;;;;4.18;1.55;;;23.00;38.60;;;;;;5059463;28;20033;-72
2021/09/06 10:30:18;;;;;;;2.22;1.10;;;23.00;38.20;;;;;;5047401;28;20030;-72
2021/09/06 10:32:47;;;;;;;5.70;1.90;;;22.90;38.60;;;;;;5038965;28;20079;-73
2021/09/06 10:35:20;;;;;;;4.32;1.52;;;22.90;38.60;;;;;;5040424;28;20028;-72
2021/09/06 10:38:10;;;;;;;3.38;1.50;;;22.80;38.80;;;;;;5039753;28;20111;-72
2021/09/06 10:40:39;;;;;;;2.63;1.20;;;22.90;38.40;;;;;;5043274;28;20033;-71
2021/09/06 10:43:20;;;;;;;2.85;1.38;;;22.90;38.20;;;;;;5039139;28;20035;-73
2021/09/06 10:45:49;;;;;;;1.80;1.10;;;22.70;38.30;;;;;;5048762;28;20036;-72
2021/09/06 10:48:21;;;;;;;2.75;1.30;;;22.30;38.80;;;;;;5039947;28;20032;-71
2021/09/06 10:50:48;;;;;;;5.93;1.35;;;22.00;39.20;;;;;;5040530;28;20036;-72
2021/09/06 10:53:23;;;;;;;2.20;1.20;;;21.70;39.50;;;;;;5048612;28;20037;-72
2021/09/06 10:55:59;;;;;;;2.55;1.55;;;21.50;40.30;;;;;;5049436;28;20364;-74
2021/09/06 10:58:27;;;;;;;3.58;1.60;;;21.50;40.10;;;;;;5071592;28;20033;-73
2021/09/06 11:00:55;;;;;;;2.78;1.63;;;21.40;39.80;;;;;;5053347;28;20060;-80
2021/09/06 11:03:23;;;;;;;2.30;1.20;;;21.40;39.90;;;;;;5046855;28;20033;-77
2021/09/06 11:05:57;;;;;;;2.78;1.48;;;21.40;40.30;;;;;;5059771;28;20487;-76
2021/09/06 11:08:25;;;;;;;2.55;1.30;;;21.40;40.20;;;;;;5055919;28;20450;-76
2021/09/06 11:10:56;;;;;;;2.85;1.10;;;21.40;40.10;;;;;;5050578;28;20038;-77
2021/09/06 11:13:22;;;;;;;2.42;1.27;;;21.50;40.90;;;;;;5041693;28;20036;-76
2021/09/06 11:15:49;;;;;;;4.82;1.35;;;21.40;40.40;;;;;;5036498;28;20029;-76
2021/09/06 11:18:15;;;;;;;2.55;1.38;;;21.40;40.30;;;;;;5034595;28;20110;-76
2021/09/06 11:20:44;;;;;;;2.70;1.45;;;21.40;40.10;;;;;;5047086;28;20025;-77
2021/09/06 11:23:10;;;;;;;3.65;1.40;;;21.70;39.70;;;;;;5046629;28;20064;-74
2021/09/06 11:25:42;;;;;;;2.53;1.20;;;22.20;39.00;;;;;;5045182;28;20069;-74
2021/09/06 11:28:13;;;;;;;3.63;1.75;;;22.80;38.20;;;;;;5034915;28;20030;-75
2021/09/06 11:30:41;;;;;;;2.30;1.25;;;22.90;37.00;;;;;;5045317;28;20115;-76
2021/09/06 11:33:09;;;;;;;5.10;1.20;;;22.80;36.30;;;;;;5042320;28;20040;-75
2021/09/06 11:35:40;;;;;;;3.70;1.30;;;22.60;36.10;;;;;;5050266;28;20116;-75
2021/09/06 11:38:07;;;;;;;3.38;1.23;;;22.40;37.00;;;;;;5045895;28;20029;-75
2021/09/06 11:40:34;;;;;;;2.67;1.15;;;22.10;37.70;;;;;;5039129;28;20029;-76
2021/09/06 11:43:01;;;;;;;4.25;1.33;;;21.80;37.80;;;;;;5047929;28;20021;-74
2021/09/06 11:45:27;;;;;;;2.90;1.58;;;21.60;38.50;;;;;;5040020;28;20407;-75
2021/09/06 11:47:59;;;;;;;3.88;1.30;;;21.50;39.00;;;;;;5037832;28;20365;-76
2021/09/06 11:50:30;;;;;;;3.40;1.15;;;21.70;39.20;;;;;;5039576;28;20028;-75
2021/09/06 11:53:07;;;;;;;2.67;1.20;;;22.10;39.90;;;;;;5045064;28;20025;-77
2021/09/06 11:55:33;;;;;;;2.63;1.20;;;22.50;38.30;;;;;;5046036;28;20082;-77
2021/09/06 11:58:11;;;;;;;2.42;1.10;;;22.80;38.80;;;;;;5048320;28;20037;-70
2021/09/06 12:00:39;;;;;;;2.90;1.30;;;22.80;38.40;;;;;;5040142;28;20080;-70
2021/09/06 12:03:05;;;;;;;2.75;1.13;;;22.70;37.50;;;;;;5042603;28;20033;-73
2021/09/06 12:05:42;;;;;;;4.28;1.42;;;22.70;37.70;;;;;;5040021;28;20061;-73
2021/09/06 12:08:14;;;;;;;4.32;1.13;;;22.60;37.60;;;;;;5039303;28;20108;-75
2021/09/06 12:10:43;;;;;;;2.55;1.10;;;22.30;37.90;;;;;;5052947;28;20405;-76
2021/09/06 12:13:21;;;;;;;3.17;1.38;;;22.10;38.00;;;;;;5053641;28;20032;-74
2021/09/06 12:15:58;;;;;;;3.78;1.30;;;21.70;37.80;;;;;;5035879;28;20038;-73
2021/09/06 12:18:40;;;;;;;2.72;1.20;;;21.30;37.90;;;;;;5041473;28;20064;-76
2021/09/06 12:21:09;;;;;;;2.53;1.20;;;20.90;38.90;;;;;;5043612;28;20071;-76
2021/09/06 12:23:39;;;;;;;3.90;1.60;;;20.70;39.30;;;;;;5054323;28;20032;-74
2021/09/06 12:26:07;;;;;;;3.42;1.30;;;20.60;39.90;;;;;;5051188;28;20041;-75
2021/09/06 12:28:34;;;;;;;2.75;1.27;;;20.50;39.90;;;;;;5053120;28;20033;-76
2021/09/06 12:31:05;;;;;;;3.38;1.33;;;20.30;40.00;;;;;;5040453;28;20025;-76
2021/09/06 12:33:31;;;;;;;5.13;1.50;;;20.20;40.90;;;;;;5041659;28;20029;-74
2021/09/06 12:36:02;;;;;;;3.67;1.70;;;20.00;41.20;;;;;;5043717;28;20038;-75
2021/09/06 12:38:30;;;;;;;4.78;1.90;;;19.80;41.50;;;;;;5047900;28;20078;-74
2021/09/06 12:40:55;;;;;;;5.40;1.58;;;19.70;42.20;;;;;;5041510;28;20029;-80
2021/09/06 12:43:21;;;;;;;3.20;1.42;;;19.50;42.00;;;;;;5036213;28;20088;-75
2021/09/06 12:45:47;;;;;;;3.70;1.85;;;19.30;42.20;;;;;;5044791;28;20098;-75